sensor_id;sensor_type;location;lat;lon;timestamp;P1;P2;P0
64229;PMS5003;50547;49.498;0.092;2024-03-25T00:01:01;10;10;
64229;PMS5003;50547;49.498;0.092;2024-03-25T00:03:30;10;10;
64229;PMS5003;50547;49.498;0.092;2024-03-25T00:05:59;10;10;
64229;PMS5003;50547;49.498;0.092;2024-03-25T00:08:28;10;10;
64229;PMS5003;50547;49.498;0.092;2024-03-25T00:10:57;10;10;
64229;PMS5003;50547;49.498;0.092;2024-03-25T00:13:26;10;10;
64229;PMS5003;50547;49.498;0.092;2024-03-25T00:15:55;10;10;
64229;PMS5003;50547;49.498;0.092;2024-03-25T00:18:24;10;10;
64229;PMS5003;50547;49.498;0.092;2024-03-25T00:20:53;10;10;
64229;PMS5003;50547;49.498;0.092;2024-03-25T00:23:23;10;10;
64229;PMS5003;50547;49.498;0.092;2024-03-25T00:25:52;10;10;
64229;PMS5003;50547;49.498;0.092;2024-03-25T00:28:21;10;10;
64229;PMS5003;50547;49.498;0.092;2024-03-25T00:30:50;9;9;
64229;PMS5003;50547;49.498;0.092;2024-03-25T00:33:19;10;10;
64229;PMS5003;50547;49.498;0.092;2024-03-25T00:35:48;9;9;
64229;PMS5003;50547;49.498;0.092;2024-03-25T00:38:17;10;10;
64229;PMS5003;50547;49.498;0.092;2024-03-25T00:40:46;10;10;
64229;PMS5003;50547;49.498;0.092;2024-03-25T00:43:15;8;8;
64229;PMS5003;50547;49.498;0.092;2024-03-25T00:45:44;9;9;
64229;PMS5003;50547;49.498;0.092;2024-03-25T00:48:14;9;9;
64229;PMS5003;50547;49.498;0.092;2024-03-25T00:50:43;8;8;
64229;PMS5003;50547;49.498;0.092;2024-03-25T00:53:12;8;8;
64229;PMS5003;50547;49.498;0.092;2024-03-25T00:55:41;8;8;
64229;PMS5003;50547;49.498;0.092;2024-03-25T00:58:10;8;8;
64229;PMS5003;50547;49.498;0.092;2024-03-25T01:00:39;7;7;
64229;PMS5003;50547;49.498;0.092;2024-03-25T01:03:08;7;7;
64229;PMS5003;50547;49.498;0.092;2024-03-25T01:05:37;7;7;
64229;PMS5003;50547;49.498;0.092;2024-03-25T01:08:06;8;8;
64229;PMS5003;50547;49.498;0.092;2024-03-25T01:10:35;8;8;
64229;PMS5003;50547;49.498;0.092;2024-03-25T01:13:04;7;7;
64229;PMS5003;50547;49.498;0.092;2024-03-25T01:15:38;7;7;
64229;PMS5003;50547;49.498;0.092;2024-03-25T01:18:07;7;7;
64229;PMS5003;50547;49.498;0.092;2024-03-25T01:20:36;8;8;
64229;PMS5003;50547;49.498;0.092;2024-03-25T01:23:05;8;8;
64229;PMS5003;50547;49.498;0.092;2024-03-25T01:25:35;9;9;
64229;PMS5003;50547;49.498;0.092;2024-03-25T01:28:04;8;8;
64229;PMS5003;50547;49.498;0.092;2024-03-25T01:30:33;9;9;
64229;PMS5003;50547;49.498;0.092;2024-03-25T01:32:58;10;10;
64229;PMS5003;50547;49.498;0.092;2024-03-25T01:35:27;10;10;
64229;PMS5003;50547;49.498;0.092;2024-03-25T01:37:57;10;10;
64229;PMS5003;50547;49.498;0.092;2024-03-25T01:40:23;10;10;
64229;PMS5003;50547;49.498;0.092;2024-03-25T01:42:55;11;11;
64229;PMS5003;50547;49.498;0.092;2024-03-25T01:45:25;11;11;
64229;PMS5003;50547;49.498;0.092;2024-03-25T01:47:56;11;11;
64229;PMS5003;50547;49.498;0.092;2024-03-25T01:50:23;11;11;
64229;PMS5003;50547;49.498;0.092;2024-03-25T01:52:53;13;13;
64229;PMS5003;50547;49.498;0.092;2024-03-25T01:55:24;13;13;
64229;PMS5003;50547;49.498;0.092;2024-03-25T01:57:56;11;11;
64229;PMS5003;50547;49.498;0.092;2024-03-25T02:00:25;13;13;
64229;PMS5003;50547;49.498;0.092;2024-03-25T02:02:55;13;13;
64229;PMS5003;50547;49.498;0.092;2024-03-25T02:05:25;13;13;
64229;PMS5003;50547;49.498;0.092;2024-03-25T02:07:50;13;13;
64229;PMS5003;50547;49.498;0.092;2024-03-25T02:10:20;13;13;
64229;PMS5003;50547;49.498;0.092;2024-03-25T02:12:51;13;13;
64229;PMS5003;50547;49.498;0.092;2024-03-25T02:15:20;13;13;
64229;PMS5003;50547;49.498;0.092;2024-03-25T02:17:49;13;13;
64229;PMS5003;50547;49.498;0.092;2024-03-25T02:20:15;13;13;
64229;PMS5003;50547;49.498;0.092;2024-03-25T02:22:44;13;13;
64229;PMS5003;50547;49.498;0.092;2024-03-25T02:25:13;10;10;
64229;PMS5003;50547;49.498;0.092;2024-03-25T02:27:44;13;13;
64229;PMS5003;50547;49.498;0.092;2024-03-25T02:30:12;13;13;
64229;PMS5003;50547;49.498;0.092;2024-03-25T02:32:39;13;13;
64229;PMS5003;50547;49.498;0.092;2024-03-25T02:35:09;13;13;
64229;PMS5003;50547;49.498;0.092;2024-03-25T02:37:39;11;11;
64229;PMS5003;50547;49.498;0.092;2024-03-25T02:40:09;13;13;
64229;PMS5003;50547;49.498;0.092;2024-03-25T02:42:39;13;13;
64229;PMS5003;50547;49.498;0.092;2024-03-25T02:45:09;11;11;
64229;PMS5003;50547;49.498;0.092;2024-03-25T02:47:35;11;11;
64229;PMS5003;50547;49.498;0.092;2024-03-25T02:50:04;11;11;
64229;PMS5003;50547;49.498;0.092;2024-03-25T02:52:30;11;11;
64229;PMS5003;50547;49.498;0.092;2024-03-25T02:55:00;11;11;
64229;PMS5003;50547;49.498;0.092;2024-03-25T02:57:29;11;11;
64229;PMS5003;50547;49.498;0.092;2024-03-25T02:59:55;10;10;
64229;PMS5003;50547;49.498;0.092;2024-03-25T03:02:23;11;11;
64229;PMS5003;50547;49.498;0.092;2024-03-25T03:04:52;10;10;
64229;PMS5003;50547;49.498;0.092;2024-03-25T03:07:18;10;10;
64229;PMS5003;50547;49.498;0.092;2024-03-25T03:09:47;10;10;
64229;PMS5003;50547;49.498;0.092;2024-03-25T03:12:17;10;10;
64229;PMS5003;50547;49.498;0.092;2024-03-25T03:14:42;10;10;
64229;PMS5003;50547;49.498;0.092;2024-03-25T03:17:12;11;11;
64229;PMS5003;50547;49.498;0.092;2024-03-25T03:19:41;11;11;
64229;PMS5003;50547;49.498;0.092;2024-03-25T03:22:10;10;10;
64229;PMS5003;50547;49.498;0.092;2024-03-25T03:24:39;10;10;
64229;PMS5003;50547;49.498;0.092;2024-03-25T03:27:08;11;11;
64229;PMS5003;50547;49.498;0.092;2024-03-25T03:29:37;10;10;
64229;PMS5003;50547;49.498;0.092;2024-03-25T03:32:06;11;11;
64229;PMS5003;50547;49.498;0.092;2024-03-25T03:34:35;10;10;
64229;PMS5003;50547;49.498;0.092;2024-03-25T03:37:04;10;10;
64229;PMS5003;50547;49.498;0.092;2024-03-25T03:39:33;11;11;
64229;PMS5003;50547;49.498;0.092;2024-03-25T03:42:02;10;10;
64229;PMS5003;50547;49.498;0.092;2024-03-25T03:44:31;10;10;
64229;PMS5003;50547;49.498;0.092;2024-03-25T03:47:00;10;10;
64229;PMS5003;50547;49.498;0.092;2024-03-25T03:49:29;10;10;
64229;PMS5003;50547;49.498;0.092;2024-03-25T03:51:58;10;10;
64229;PMS5003;50547;49.498;0.092;2024-03-25T03:54:24;10;10;
64229;PMS5003;50547;49.498;0.092;2024-03-25T03:56:58;9;9;
64229;PMS5003;50547;49.498;0.092;2024-03-25T03:59:27;10;10;
64229;PMS5003;50547;49.498;0.092;2024-03-25T04:01:56;10;10;
64229;PMS5003;50547;49.498;0.092;2024-03-25T04:04:25;10;10;
64229;PMS5003;50547;49.498;0.092;2024-03-25T04:06:54;10;10;
64229;PMS5003;50547;49.498;0.092;2024-03-25T04:09:24;11;11;
64229;PMS5003;50547;49.498;0.092;2024-03-25T04:11:53;11;11;
64229;PMS5003;50547;49.498;0.092;2024-03-25T04:14:22;11;11;
64229;PMS5003;50547;49.498;0.092;2024-03-25T04:16:51;11;11;
64229;PMS5003;50547;49.498;0.092;2024-03-25T04:19:23;11;11;
64229;PMS5003;50547;49.498;0.092;2024-03-25T04:21:52;11;11;
64229;PMS5003;50547;49.498;0.092;2024-03-25T04:24:22;11;11;
64229;PMS5003;50547;49.498;0.092;2024-03-25T04:26:51;11;11;
64229;PMS5003;50547;49.498;0.092;2024-03-25T04:29:20;10;10;
64229;PMS5003;50547;49.498;0.092;2024-03-25T04:31:49;10;10;
64229;PMS5003;50547;49.498;0.092;2024-03-25T04:34:18;10;10;
64229;PMS5003;50547;49.498;0.092;2024-03-25T04:36:47;10;10;
64229;PMS5003;50547;49.498;0.092;2024-03-25T04:39:16;10;10;
64229;PMS5003;50547;49.498;0.092;2024-03-25T04:41:45;10;10;
64229;PMS5003;50547;49.498;0.092;2024-03-25T04:44:14;10;10;
64229;PMS5003;50547;49.498;0.092;2024-03-25T04:46:43;10;10;
64229;PMS5003;50547;49.498;0.092;2024-03-25T04:49:12;10;10;
64229;PMS5003;50547;49.498;0.092;2024-03-25T04:51:41;11;11;
64229;PMS5003;50547;49.498;0.092;2024-03-25T04:54:11;11;11;
64229;PMS5003;50547;49.498;0.092;2024-03-25T04:56:40;10;10;
64229;PMS5003;50547;49.498;0.092;2024-03-25T04:59:09;10;10;
64229;PMS5003;50547;49.498;0.092;2024-03-25T05:01:38;10;10;
64229;PMS5003;50547;49.498;0.092;2024-03-25T05:04:07;11;11;
64229;PMS5003;50547;49.498;0.092;2024-03-25T05:06:36;10;10;
64229;PMS5003;50547;49.498;0.092;2024-03-25T05:09:05;10;10;
64229;PMS5003;50547;49.498;0.092;2024-03-25T05:11:34;10;10;
64229;PMS5003;50547;49.498;0.092;2024-03-25T05:14:03;11;11;
64229;PMS5003;50547;49.498;0.092;2024-03-25T05:16:32;10;10;
64229;PMS5003;50547;49.498;0.092;2024-03-25T05:19:01;10;10;
64229;PMS5003;50547;49.498;0.092;2024-03-25T05:21:31;10;10;
64229;PMS5003;50547;49.498;0.092;2024-03-25T05:24:00;10;10;
64229;PMS5003;50547;49.498;0.092;2024-03-25T05:26:29;11;11;
64229;PMS5003;50547;49.498;0.092;2024-03-25T05:28:58;11;11;
64229;PMS5003;50547;49.498;0.092;2024-03-25T05:31:28;10;10;
64229;PMS5003;50547;49.498;0.092;2024-03-25T05:33:57;10;10;
64229;PMS5003;50547;49.498;0.092;2024-03-25T05:36:26;11;11;
64229;PMS5003;50547;49.498;0.092;2024-03-25T05:38:55;10;10;
64229;PMS5003;50547;49.498;0.092;2024-03-25T05:41:24;10;10;
64229;PMS5003;50547;49.498;0.092;2024-03-25T05:43:53;10;10;
64229;PMS5003;50547;49.498;0.092;2024-03-25T05:46:22;10;10;
64229;PMS5003;50547;49.498;0.092;2024-03-25T05:48:51;10;10;
64229;PMS5003;50547;49.498;0.092;2024-03-25T05:51:20;10;10;
64229;PMS5003;50547;49.498;0.092;2024-03-25T05:53:49;10;10;
64229;PMS5003;50547;49.498;0.092;2024-03-25T05:56:18;10;10;
64229;PMS5003;50547;49.498;0.092;2024-03-25T05:58:47;10;10;
64229;PMS5003;50547;49.498;0.092;2024-03-25T06:01:16;9;9;
64229;PMS5003;50547;49.498;0.092;2024-03-25T06:03:45;10;10;
64229;PMS5003;50547;49.498;0.092;2024-03-25T06:06:14;10;10;
64229;PMS5003;50547;49.498;0.092;2024-03-25T06:08:41;10;10;
64229;PMS5003;50547;49.498;0.092;2024-03-25T06:11:10;10;10;
64229;PMS5003;50547;49.498;0.092;2024-03-25T06:13:39;10;10;
64229;PMS5003;50547;49.498;0.092;2024-03-25T06:16:08;10;10;
64229;PMS5003;50547;49.498;0.092;2024-03-25T06:18:37;10;10;
64229;PMS5003;50547;49.498;0.092;2024-03-25T06:21:07;11;11;
64229;PMS5003;50547;49.498;0.092;2024-03-25T06:23:36;10;10;
64229;PMS5003;50547;49.498;0.092;2024-03-25T06:26:05;8;8;
64229;PMS5003;50547;49.498;0.092;2024-03-25T06:28:34;8;8;
64229;PMS5003;50547;49.498;0.092;2024-03-25T06:31:03;7;7;
64229;PMS5003;50547;49.498;0.092;2024-03-25T06:33:32;7;7;
64229;PMS5003;50547;49.498;0.092;2024-03-25T06:36:01;7;7;
64229;PMS5003;50547;49.498;0.092;2024-03-25T06:38:30;7;7;
64229;PMS5003;50547;49.498;0.092;2024-03-25T06:40:59;7;7;
64229;PMS5003;50547;49.498;0.092;2024-03-25T06:43:29;7;7;
64229;PMS5003;50547;49.498;0.092;2024-03-25T06:45:58;7;7;
64229;PMS5003;50547;49.498;0.092;2024-03-25T06:48:27;7;7;
64229;PMS5003;50547;49.498;0.092;2024-03-25T06:51:06;7;7;
64229;PMS5003;50547;49.498;0.092;2024-03-25T06:53:35;8;8;
64229;PMS5003;50547;49.498;0.092;2024-03-25T06:56:04;8;8;
64229;PMS5003;50547;49.498;0.092;2024-03-25T06:58:33;8;8;
64229;PMS5003;50547;49.498;0.092;2024-03-25T07:01:04;8;8;
64229;PMS5003;50547;49.498;0.092;2024-03-25T07:03:35;10;10;
64229;PMS5003;50547;49.498;0.092;2024-03-25T07:06:04;10;10;
64229;PMS5003;50547;49.498;0.092;2024-03-25T07:08:33;10;10;
64229;PMS5003;50547;49.498;0.092;2024-03-25T07:11:02;10;10;
64229;PMS5003;50547;49.498;0.092;2024-03-25T07:13:32;11;11;
64229;PMS5003;50547;49.498;0.092;2024-03-25T07:16:01;11;11;
64229;PMS5003;50547;49.498;0.092;2024-03-25T07:18:30;10;10;
64229;PMS5003;50547;49.498;0.092;2024-03-25T07:20:59;10;10;
64229;PMS5003;50547;49.498;0.092;2024-03-25T07:23:28;10;10;
64229;PMS5003;50547;49.498;0.092;2024-03-25T07:25:57;10;10;
64229;PMS5003;50547;49.498;0.092;2024-03-25T07:28:26;10;10;
64229;PMS5003;50547;49.498;0.092;2024-03-25T07:30:55;10;10;
64229;PMS5003;50547;49.498;0.092;2024-03-25T07:33:24;11;11;
64229;PMS5003;50547;49.498;0.092;2024-03-25T07:35:53;11;11;
64229;PMS5003;50547;49.498;0.092;2024-03-25T07:38:22;10;10;
64229;PMS5003;50547;49.498;0.092;2024-03-25T07:40:51;11;11;
64229;PMS5003;50547;49.498;0.092;2024-03-25T07:43:20;10;10;
64229;PMS5003;50547;49.498;0.092;2024-03-25T07:45:50;10;10;
64229;PMS5003;50547;49.498;0.092;2024-03-25T07:48:19;10;10;
64229;PMS5003;50547;49.498;0.092;2024-03-25T07:50:48;11;11;
64229;PMS5003;50547;49.498;0.092;2024-03-25T07:53:17;10;10;
64229;PMS5003;50547;49.498;0.092;2024-03-25T07:55:46;10;10;
64229;PMS5003;50547;49.498;0.092;2024-03-25T07:58:15;8;8;
64229;PMS5003;50547;49.498;0.092;2024-03-25T08:00:44;8;8;
64229;PMS5003;50547;49.498;0.092;2024-03-25T08:03:13;7;7;
64229;PMS5003;50547;49.498;0.092;2024-03-25T08:05:42;7;7;
64229;PMS5003;50547;49.498;0.092;2024-03-25T08:08:11;7;7;
64229;PMS5003;50547;49.498;0.092;2024-03-25T08:10:40;5;5;
64229;PMS5003;50547;49.498;0.092;2024-03-25T08:13:09;6;6;
64229;PMS5003;50547;49.498;0.092;2024-03-25T08:15:38;6;6;
64229;PMS5003;50547;49.498;0.092;2024-03-25T08:18:07;7;7;
64229;PMS5003;50547;49.498;0.092;2024-03-25T08:20:37;7;7;
64229;PMS5003;50547;49.498;0.092;2024-03-25T08:23:31;7;7;
64229;PMS5003;50547;49.498;0.092;2024-03-25T08:26:00;7;7;
64229;PMS5003;50547;49.498;0.092;2024-03-25T08:28:29;6;6;
64229;PMS5003;50547;49.498;0.092;2024-03-25T08:30:58;6;6;
64229;PMS5003;50547;49.498;0.092;2024-03-25T08:33:27;6;6;
64229;PMS5003;50547;49.498;0.092;2024-03-25T08:35:56;7;7;
64229;PMS5003;50547;49.498;0.092;2024-03-25T08:38:29;7;7;
64229;PMS5003;50547;49.498;0.092;2024-03-25T08:40:58;6;6;
64229;PMS5003;50547;49.498;0.092;2024-03-25T08:43:28;6;6;
64229;PMS5003;50547;49.498;0.092;2024-03-25T08:45:57;6;6;
64229;PMS5003;50547;49.498;0.092;2024-03-25T08:48:26;6;6;
64229;PMS5003;50547;49.498;0.092;2024-03-25T08:50:55;7;7;
64229;PMS5003;50547;49.498;0.092;2024-03-25T08:53:24;6;6;
64229;PMS5003;50547;49.498;0.092;2024-03-25T08:55:53;6;6;
64229;PMS5003;50547;49.498;0.092;2024-03-25T08:58:22;6;6;
64229;PMS5003;50547;49.498;0.092;2024-03-25T09:00:51;5;5;
64229;PMS5003;50547;49.498;0.092;2024-03-25T09:03:20;5;5;
64229;PMS5003;50547;49.498;0.092;2024-03-25T09:05:49;6;6;
64229;PMS5003;50547;49.498;0.092;2024-03-25T09:08:18;5;5;
64229;PMS5003;50547;49.498;0.092;2024-03-25T09:10:47;5;5;
64229;PMS5003;50547;49.498;0.092;2024-03-25T09:13:16;6;6;
64229;PMS5003;50547;49.498;0.092;2024-03-25T09:15:45;7;7;
64229;PMS5003;50547;49.498;0.092;2024-03-25T09:18:14;5;5;
64229;PMS5003;50547;49.498;0.092;2024-03-25T09:20:43;5;5;
64229;PMS5003;50547;49.498;0.092;2024-03-25T09:23:13;5;5;
64229;PMS5003;50547;49.498;0.092;2024-03-25T09:25:50;5;5;
64229;PMS5003;50547;49.498;0.092;2024-03-25T09:28:20;4;4;
64229;PMS5003;50547;49.498;0.092;2024-03-25T09:30:49;4;4;
64229;PMS5003;50547;49.498;0.092;2024-03-25T09:33:18;4;4;
64229;PMS5003;50547;49.498;0.092;2024-03-25T09:35:47;5;5;
64229;PMS5003;50547;49.498;0.092;2024-03-25T09:38:16;5;5;
64229;PMS5003;50547;49.498;0.092;2024-03-25T09:40:45;5;5;
64229;PMS5003;50547;49.498;0.092;2024-03-25T09:43:16;6;6;
64229;PMS5003;50547;49.498;0.092;2024-03-25T09:45:52;6;6;
64229;PMS5003;50547;49.498;0.092;2024-03-25T09:48:24;5;5;
64229;PMS5003;50547;49.498;0.092;2024-03-25T09:50:53;5;5;
64229;PMS5003;50547;49.498;0.092;2024-03-25T09:53:22;4;4;
64229;PMS5003;50547;49.498;0.092;2024-03-25T09:55:51;4;4;
64229;PMS5003;50547;49.498;0.092;2024-03-25T09:58:20;6;6;
64229;PMS5003;50547;49.498;0.092;2024-03-25T10:00:50;5;5;
64229;PMS5003;50547;49.498;0.092;2024-03-25T10:03:19;6;6;
64229;PMS5003;50547;49.498;0.092;2024-03-25T10:05:53;5;5;
64229;PMS5003;50547;49.498;0.092;2024-03-25T10:08:22;5;5;
64229;PMS5003;50547;49.498;0.092;2024-03-25T10:10:52;5;5;
64229;PMS5003;50547;49.498;0.092;2024-03-25T10:13:22;5;5;
64229;PMS5003;50547;49.498;0.092;2024-03-25T10:15:51;6;6;
64229;PMS5003;50547;49.498;0.092;2024-03-25T10:18:20;7;7;
64229;PMS5003;50547;49.498;0.092;2024-03-25T10:20:49;6;6;
64229;PMS5003;50547;49.498;0.092;2024-03-25T10:23:19;6;6;
64229;PMS5003;50547;49.498;0.092;2024-03-25T10:25:51;6;6;
64229;PMS5003;50547;49.498;0.092;2024-03-25T10:28:21;6;6;
64229;PMS5003;50547;49.498;0.092;2024-03-25T10:30:50;6;6;
64229;PMS5003;50547;49.498;0.092;2024-03-25T10:33:19;7;7;
64229;PMS5003;50547;49.498;0.092;2024-03-25T10:35:48;5;5;
64229;PMS5003;50547;49.498;0.092;2024-03-25T10:38:20;4;4;
64229;PMS5003;50547;49.498;0.092;2024-03-25T10:40:52;7;7;
64229;PMS5003;50547;49.498;0.092;2024-03-25T10:43:23;6;6;
64229;PMS5003;50547;49.498;0.092;2024-03-25T10:45:57;5;5;
64229;PMS5003;50547;49.498;0.092;2024-03-25T10:48:28;5;5;
64229;PMS5003;50547;49.498;0.092;2024-03-25T10:50:59;6;6;
64229;PMS5003;50547;49.498;0.092;2024-03-25T10:53:30;5;5;
64229;PMS5003;50547;49.498;0.092;2024-03-25T10:56:04;5;5;
64229;PMS5003;50547;49.498;0.092;2024-03-25T10:58:35;5;5;
64229;PMS5003;50547;49.498;0.092;2024-03-25T11:01:05;5;5;
64229;PMS5003;50547;49.498;0.092;2024-03-25T11:03:36;6;6;
64229;PMS5003;50547;49.498;0.092;2024-03-25T11:06:05;5;5;
64229;PMS5003;50547;49.498;0.092;2024-03-25T11:08:35;5;5;
64229;PMS5003;50547;49.498;0.092;2024-03-25T11:11:04;5;5;
64229;PMS5003;50547;49.498;0.092;2024-03-25T11:13:35;4;4;
64229;PMS5003;50547;49.498;0.092;2024-03-25T11:16:06;4;4;
64229;PMS5003;50547;49.498;0.092;2024-03-25T11:18:35;4;4;
64229;PMS5003;50547;49.498;0.092;2024-03-25T11:21:05;4;4;
64229;PMS5003;50547;49.498;0.092;2024-03-25T11:23:35;5;5;
64229;PMS5003;50547;49.498;0.092;2024-03-25T11:26:16;5;5;
64229;PMS5003;50547;49.498;0.092;2024-03-25T11:28:47;4;4;
64229;PMS5003;50547;49.498;0.092;2024-03-25T11:31:16;5;5;
64229;PMS5003;50547;49.498;0.092;2024-03-25T11:33:45;6;6;
64229;PMS5003;50547;49.498;0.092;2024-03-25T11:36:14;6;6;
64229;PMS5003;50547;49.498;0.092;2024-03-25T11:38:43;5;5;
64229;PMS5003;50547;49.498;0.092;2024-03-25T11:41:13;4;4;
64229;PMS5003;50547;49.498;0.092;2024-03-25T11:43:42;7;7;
64229;PMS5003;50547;49.498;0.092;2024-03-25T11:46:11;4;4;
64229;PMS5003;50547;49.498;0.092;2024-03-25T11:48:46;5;5;
64229;PMS5003;50547;49.498;0.092;2024-03-25T11:51:16;4;4;
64229;PMS5003;50547;49.498;0.092;2024-03-25T11:53:45;7;7;
64229;PMS5003;50547;49.498;0.092;2024-03-25T11:56:14;5;5;
64229;PMS5003;50547;49.498;0.092;2024-03-25T11:58:44;4;4;
64229;PMS5003;50547;49.498;0.092;2024-03-25T12:01:13;4;4;
64229;PMS5003;50547;49.498;0.092;2024-03-25T12:03:43;4;4;
64229;PMS5003;50547;49.498;0.092;2024-03-25T12:06:12;4;4;
64229;PMS5003;50547;49.498;0.092;2024-03-25T12:08:41;5;5;
64229;PMS5003;50547;49.498;0.092;2024-03-25T12:11:10;4;4;
64229;PMS5003;50547;49.498;0.092;2024-03-25T12:13:39;4;4;
64229;PMS5003;50547;49.498;0.092;2024-03-25T12:16:08;4;4;
64229;PMS5003;50547;49.498;0.092;2024-03-25T12:18:39;4;4;
64229;PMS5003;50547;49.498;0.092;2024-03-25T12:21:09;4;4;
64229;PMS5003;50547;49.498;0.092;2024-03-25T12:23:39;4;4;
64229;PMS5003;50547;49.498;0.092;2024-03-25T12:26:11;3;3;
64229;PMS5003;50547;49.498;0.092;2024-03-25T12:28:40;4;4;
64229;PMS5003;50547;49.498;0.092;2024-03-25T12:31:09;4;4;
64229;PMS5003;50547;49.498;0.092;2024-03-25T12:33:40;4;4;
64229;PMS5003;50547;49.498;0.092;2024-03-25T12:36:11;4;4;
64229;PMS5003;50547;49.498;0.092;2024-03-25T12:38:41;5;5;
64229;PMS5003;50547;49.498;0.092;2024-03-25T12:41:11;4;4;
64229;PMS5003;50547;49.498;0.092;2024-03-25T12:43:41;4;4;
64229;PMS5003;50547;49.498;0.092;2024-03-25T12:46:08;4;4;
64229;PMS5003;50547;49.498;0.092;2024-03-25T12:48:37;4;4;
64229;PMS5003;50547;49.498;0.092;2024-03-25T12:51:11;5;5;
64229;PMS5003;50547;49.498;0.092;2024-03-25T12:53:41;4;4;
64229;PMS5003;50547;49.498;0.092;2024-03-25T12:56:07;4;4;
64229;PMS5003;50547;49.498;0.092;2024-03-25T12:58:37;4;4;
64229;PMS5003;50547;49.498;0.092;2024-03-25T13:01:11;4;4;
64229;PMS5003;50547;49.498;0.092;2024-03-25T13:03:40;4;4;
64229;PMS5003;50547;49.498;0.092;2024-03-25T13:06:10;3;3;
64229;PMS5003;50547;49.498;0.092;2024-03-25T13:08:42;4;4;
64229;PMS5003;50547;49.498;0.092;2024-03-25T13:11:20;4;4;
64229;PMS5003;50547;49.498;0.092;2024-03-25T13:13:49;4;4;
64229;PMS5003;50547;49.498;0.092;2024-03-25T13:16:18;4;4;
64229;PMS5003;50547;49.498;0.092;2024-03-25T13:18:47;4;4;
64229;PMS5003;50547;49.498;0.092;2024-03-25T13:21:16;4;4;
64229;PMS5003;50547;49.498;0.092;2024-03-25T13:23:45;5;5;
64229;PMS5003;50547;49.498;0.092;2024-03-25T13:26:14;4;4;
64229;PMS5003;50547;49.498;0.092;2024-03-25T13:28:43;7;7;
64229;PMS5003;50547;49.498;0.092;2024-03-25T13:31:12;5;5;
64229;PMS5003;50547;49.498;0.092;2024-03-25T13:33:41;4;4;
64229;PMS5003;50547;49.498;0.092;2024-03-25T13:36:10;5;5;
64229;PMS5003;50547;49.498;0.092;2024-03-25T13:38:39;4;4;
64229;PMS5003;50547;49.498;0.092;2024-03-25T13:41:08;4;4;
64229;PMS5003;50547;49.498;0.092;2024-03-25T13:43:46;4;4;
64229;PMS5003;50547;49.498;0.092;2024-03-25T13:46:19;4;4;
64229;PMS5003;50547;49.498;0.092;2024-03-25T13:48:46;3;3;
64229;PMS5003;50547;49.498;0.092;2024-03-25T13:51:15;3;3;
64229;PMS5003;50547;49.498;0.092;2024-03-25T13:53:44;4;4;
64229;PMS5003;50547;49.498;0.092;2024-03-25T13:56:13;3;3;
64229;PMS5003;50547;49.498;0.092;2024-03-25T13:58:43;4;4;
64229;PMS5003;50547;49.498;0.092;2024-03-25T14:01:12;4;4;
64229;PMS5003;50547;49.498;0.092;2024-03-25T14:03:42;4;4;
64229;PMS5003;50547;49.498;0.092;2024-03-25T14:06:11;3;3;
64229;PMS5003;50547;49.498;0.092;2024-03-25T14:08:40;4;4;
64229;PMS5003;50547;49.498;0.092;2024-03-25T14:11:09;4;4;
64229;PMS5003;50547;49.498;0.092;2024-03-25T14:13:39;4;4;
64229;PMS5003;50547;49.498;0.092;2024-03-25T14:16:08;5;5;
64229;PMS5003;50547;49.498;0.092;2024-03-25T14:18:37;4;4;
64229;PMS5003;50547;49.498;0.092;2024-03-25T14:21:06;4;4;
64229;PMS5003;50547;49.498;0.092;2024-03-25T14:23:35;4;4;
64229;PMS5003;50547;49.498;0.092;2024-03-25T14:26:04;4;4;
64229;PMS5003;50547;49.498;0.092;2024-03-25T14:28:34;4;4;
64229;PMS5003;50547;49.498;0.092;2024-03-25T14:31:03;4;4;
64229;PMS5003;50547;49.498;0.092;2024-03-25T14:33:38;5;5;
64229;PMS5003;50547;49.498;0.092;2024-03-25T14:36:04;4;4;
64229;PMS5003;50547;49.498;0.092;2024-03-25T14:38:33;4;4;
64229;PMS5003;50547;49.498;0.092;2024-03-25T14:41:02;4;4;
64229;PMS5003;50547;49.498;0.092;2024-03-25T14:43:31;4;4;
64229;PMS5003;50547;49.498;0.092;2024-03-25T14:46:00;4;4;
64229;PMS5003;50547;49.498;0.092;2024-03-25T14:48:29;4;4;
64229;PMS5003;50547;49.498;0.092;2024-03-25T14:50:59;4;4;
64229;PMS5003;50547;49.498;0.092;2024-03-25T14:53:28;4;4;
64229;PMS5003;50547;49.498;0.092;2024-03-25T14:55:57;7;7;
64229;PMS5003;50547;49.498;0.092;2024-03-25T14:58:22;10;10;
64229;PMS5003;50547;49.498;0.092;2024-03-25T15:00:51;4;4;
64229;PMS5003;50547;49.498;0.092;2024-03-25T15:03:21;5;5;
64229;PMS5003;50547;49.498;0.092;2024-03-25T15:05:50;4;4;
64229;PMS5003;50547;49.498;0.092;2024-03-25T15:08:19;5;5;
64229;PMS5003;50547;49.498;0.092;2024-03-25T15:10:48;6;6;
64229;PMS5003;50547;49.498;0.092;2024-03-25T15:13:19;5;5;
64229;PMS5003;50547;49.498;0.092;2024-03-25T15:15:50;5;5;
64229;PMS5003;50547;49.498;0.092;2024-03-25T15:18:19;4;4;
64229;PMS5003;50547;49.498;0.092;2024-03-25T15:20:58;4;4;
64229;PMS5003;50547;49.498;0.092;2024-03-25T15:23:30;4;4;
64229;PMS5003;50547;49.498;0.092;2024-03-25T15:25:59;4;4;
64229;PMS5003;50547;49.498;0.092;2024-03-25T15:28:28;5;5;
64229;PMS5003;50547;49.498;0.092;2024-03-25T15:30:57;6;6;
64229;PMS5003;50547;49.498;0.092;2024-03-25T15:33:26;5;5;
64229;PMS5003;50547;49.498;0.092;2024-03-25T15:35:55;5;5;
64229;PMS5003;50547;49.498;0.092;2024-03-25T15:38:24;4;4;
64229;PMS5003;50547;49.498;0.092;2024-03-25T15:40:54;5;5;
64229;PMS5003;50547;49.498;0.092;2024-03-25T15:43:23;4;4;
64229;PMS5003;50547;49.498;0.092;2024-03-25T15:45:53;5;5;
64229;PMS5003;50547;49.498;0.092;2024-03-25T15:48:20;4;4;
64229;PMS5003;50547;49.498;0.092;2024-03-25T15:50:49;4;4;
64229;PMS5003;50547;49.498;0.092;2024-03-25T15:53:19;4;4;
64229;PMS5003;50547;49.498;0.092;2024-03-25T15:55:48;4;4;
64229;PMS5003;50547;49.498;0.092;2024-03-25T15:58:16;4;4;
64229;PMS5003;50547;49.498;0.092;2024-03-25T16:00:45;5;5;
64229;PMS5003;50547;49.498;0.092;2024-03-25T16:03:14;4;4;
64229;PMS5003;50547;49.498;0.092;2024-03-25T16:05:44;5;5;
64229;PMS5003;50547;49.498;0.092;2024-03-25T16:08:09;4;4;
64229;PMS5003;50547;49.498;0.092;2024-03-25T16:10:36;4;4;
64229;PMS5003;50547;49.498;0.092;2024-03-25T16:13:06;4;4;
64229;PMS5003;50547;49.498;0.092;2024-03-25T16:15:36;4;4;
64229;PMS5003;50547;49.498;0.092;2024-03-25T16:18:07;4;4;
64229;PMS5003;50547;49.498;0.092;2024-03-25T16:20:36;4;4;
64229;PMS5003;50547;49.498;0.092;2024-03-25T16:23:03;4;4;
64229;PMS5003;50547;49.498;0.092;2024-03-25T16:25:29;4;4;
64229;PMS5003;50547;49.498;0.092;2024-03-25T16:27:58;4;4;
64229;PMS5003;50547;49.498;0.092;2024-03-25T16:30:38;4;4;
64229;PMS5003;50547;49.498;0.092;2024-03-25T16:33:07;3;3;
64229;PMS5003;50547;49.498;0.092;2024-03-25T16:35:36;4;4;
64229;PMS5003;50547;49.498;0.092;2024-03-25T16:38:06;3;3;
64229;PMS5003;50547;49.498;0.092;2024-03-25T16:40:35;4;4;
64229;PMS5003;50547;49.498;0.092;2024-03-25T16:43:05;4;4;
64229;PMS5003;50547;49.498;0.092;2024-03-25T16:45:33;3;3;
64229;PMS5003;50547;49.498;0.092;2024-03-25T16:48:02;4;4;
64229;PMS5003;50547;49.498;0.092;2024-03-25T16:50:31;4;4;
64229;PMS5003;50547;49.498;0.092;2024-03-25T16:53:00;4;4;